Portada
METAR-TAF:

METAR-TAF

Aeroports :

Subang Jaya, Malàisia

latitud: 03-07N, longitud: 101-32E, altitud: 27 m

Observació

L'informe es va fer fa 1 hora i 9 minuts, a les 11:00 UTC
Vent 5 kt del Oest, variant entre Oest/Sud-Oest i Oest/Nord-Oest
Temperatura 31°C
Humitat 75%
Pressió 1008 hPa
Visibilitat 10 km o més
Escasses núvols a una alçada de 2600 ft

METAR: WMSA 091100Z 27005KT 240V300 9999 FEW026 31/26 Q1008

Hora: 20:09 (12:09 UTC)

Pronòstic

L'informe es va fer fa 1 hora i 9 minuts, a les 11:00 UTC
Pronòstic vàlid del 09 a les 12 UTC al 10 a les 12 UTC
Vent 5 kt del Nord
Visibilitat 10 km o més
Escasses núvols a una alçada de 2400 ft

TAF: WMSA 091100Z 0912/1012 35005KT 9999 FEW024

Observacions i pronòstics meteorològics de més de 4000 aeroports (METAR i TAF).

Les estacions disponibles són els punts grocs i vermells al mapa.

Posi el ratolí al punt desitjat per veure el nom de l'estació.

Feu clic per veure les observacions i els pronòstics meteorològics.

Per canviar el mapa: feu clic els botons verds amb una creu de color negre per apropar; al botó verd amb un guió per allunyar la imatge; o en les fletxes verdes per a mapes adjacents.


METAR-TAF: